createdAt,value
2017-11-09T00:00:29.256Z,6.8
2017-11-09T00:01:31.678Z,6.8
2017-11-09T00:02:34.106Z,6.8
2017-11-09T00:03:36.537Z,6.8
2017-11-09T00:04:38.970Z,6.8
2017-11-09T00:05:41.402Z,6.8
2017-11-09T00:06:43.824Z,6.8
2017-11-09T00:07:46.625Z,6.8
2017-11-09T00:08:49.048Z,6.8
2017-11-09T00:09:51.470Z,6.8
2017-11-09T00:10:53.897Z,6.8
2017-11-09T00:11:56.319Z,6.8
2017-11-09T00:12:58.753Z,6.8
2017-11-09T00:14:01.188Z,6.8
2017-11-09T00:15:03.600Z,6.8
2017-11-09T00:16:06.032Z,6.8
2017-11-09T00:17:08.466Z,6.8
2017-11-09T00:18:10.898Z,6.8
2017-11-09T00:19:13.323Z,6.8
2017-11-09T00:20:15.748Z,6.8
2017-11-09T00:21:18.176Z,6.8
2017-11-09T00:22:20.978Z,6.8
2017-11-09T00:23:23.405Z,6.8
2017-11-09T00:24:25.835Z,6.8
2017-11-09T00:25:28.255Z,6.8
2017-11-09T00:26:30.683Z,6.8
2017-11-09T00:27:33.122Z,6.8
2017-11-09T00:28:35.541Z,6.8
2017-11-09T00:29:37.957Z,6.8
2017-11-09T00:30:40.752Z,6.8
2017-11-09T00:31:43.555Z,6.8
2017-11-09T00:32:45.987Z,6.8
2017-11-09T00:33:48.412Z,6.8
2017-11-09T00:34:50.841Z,6.8
2017-11-09T00:35:53.262Z,6.8
2017-11-09T00:36:55.687Z,6.8
2017-11-09T00:37:58.469Z,6.7
2017-11-09T00:39:00.904Z,6.7
2017-11-09T00:40:03.331Z,6.7
2017-11-09T00:41:05.752Z,6.7
2017-11-09T00:42:08.184Z,6.7
2017-11-09T00:43:10.617Z,6.8
2017-11-09T00:44:13.396Z,6.8
2017-11-09T00:45:15.828Z,6.8
2017-11-09T00:46:18.247Z,6.7
2017-11-09T00:47:20.675Z,6.8
2017-11-09T00:48:23.125Z,6.7
2017-11-09T00:49:25.895Z,6.7
2017-11-09T00:50:28.324Z,6.7
2017-11-09T00:51:30.757Z,6.7
2017-11-09T00:52:33.181Z,6.7
2017-11-09T00:53:36.006Z,6.7
2017-11-09T00:54:38.428Z,6.7
2017-11-09T00:55:41.207Z,6.7
2017-11-09T00:56:43.634Z,6.7
2017-11-09T00:57:46.060Z,6.7
2017-11-09T00:58:48.492Z,6.7
2017-11-09T00:59:50.920Z,6.7
2017-11-09T01:00:53.345Z,6.7
2017-11-09T01:01:55.775Z,6.7
2017-11-09T01:02:58.213Z,6.7
2017-11-09T01:04:00.630Z,6.7
2017-11-09T01:05:03.075Z,6.7
2017-11-09T01:06:05.495Z,6.7
2017-11-09T01:07:07.918Z,6.7
2017-11-09T01:08:10.341Z,6.7
2017-11-09T01:09:12.771Z,6.7
2017-11-09T01:10:15.556Z,6.7
2017-11-09T01:11:17.995Z,6.7
2017-11-09T01:12:20.415Z,6.7
2017-11-09T01:13:23.213Z,6.7
2017-11-09T01:14:25.635Z,6.7
2017-11-09T01:15:28.060Z,6.7
2017-11-09T01:16:30.482Z,6.7
2017-11-09T01:17:33.645Z,6.7
2017-11-09T01:18:36.429Z,6.7
2017-11-09T01:19:38.869Z,6.7
2017-11-09T01:20:41.680Z,6.7
2017-11-09T01:21:44.504Z,6.7
2017-11-09T01:22:46.926Z,6.7
2017-11-09T01:23:49.348Z,6.7
2017-11-09T01:24:51.769Z,6.7
2017-11-09T01:25:54.205Z,6.7
2017-11-09T01:26:56.971Z,6.7
2017-11-09T01:27:59.407Z,6.7
2017-11-09T01:29:01.845Z,6.7
2017-11-09T01:30:04.635Z,6.7
2017-11-09T01:31:07.079Z,6.7
2017-11-09T01:32:09.863Z,6.7
2017-11-09T01:33:12.646Z,6.7
2017-11-09T01:34:15.083Z,6.6
2017-11-09T01:35:17.503Z,6.6
2017-11-09T01:36:19.942Z,6.6
2017-11-09T01:37:22.365Z,6.6
2017-11-09T01:38:25.156Z,6.6
2017-11-09T01:39:27.583Z,6.7
2017-11-09T01:40:30.026Z,6.7
2017-11-09T01:41:32.453Z,6.6
2017-11-09T01:42:34.880Z,6.6
2017-11-09T01:43:37.305Z,6.6
2017-11-09T01:44:40.085Z,6.7
2017-11-09T01:45:42.506Z,6.7
2017-11-09T01:46:44.937Z,6.7
2017-11-09T01:47:47.352Z,6.7
2017-11-09T01:48:49.787Z,6.6
2017-11-09T01:49:52.569Z,6.6
2017-11-09T01:50:55.002Z,6.7
2017-11-09T01:51:57.421Z,6.7
2017-11-09T01:52:59.849Z,6.6
2017-11-09T01:54:02.284Z,6.6
2017-11-09T01:55:05.092Z,6.6
2017-11-09T01:56:07.519Z,6.6
2017-11-09T01:57:09.949Z,6.6
2017-11-09T01:58:12.380Z,6.6
2017-11-09T01:59:15.185Z,6.6
2017-11-09T02:00:17.984Z,6.6
2017-11-09T02:01:20.413Z,6.6
2017-11-09T02:02:23.187Z,6.6
2017-11-09T02:03:25.981Z,6.6
2017-11-09T02:04:28.776Z,6.7
2017-11-09T02:05:31.201Z,6.7
2017-11-09T02:06:33.648Z,6.7
2017-11-09T02:07:36.418Z,6.6
2017-11-09T02:08:38.849Z,6.6
2017-11-09T02:09:41.266Z,6.6
2017-11-09T02:10:44.062Z,6.6
2017-11-09T02:11:46.479Z,6.6
2017-11-09T02:12:48.919Z,6.7
2017-11-09T02:13:51.337Z,6.6
2017-11-09T02:14:53.762Z,6.6
2017-11-09T02:15:56.191Z,6.6
2017-11-09T02:16:58.624Z,6.6
2017-11-09T02:18:01.046Z,6.7
2017-11-09T02:19:03.474Z,6.7
2017-11-09T02:20:05.897Z,6.7
2017-11-09T02:21:08.317Z,6.7
2017-11-09T02:22:10.744Z,6.7
2017-11-09T02:23:13.533Z,6.7
2017-11-09T02:24:15.948Z,6.6
2017-11-09T02:25:18.391Z,6.6
2017-11-09T02:26:20.813Z,6.6
2017-11-09T02:27:23.596Z,6.6
2017-11-09T02:28:26.024Z,6.6
2017-11-09T02:29:28.818Z,6.7
2017-11-09T02:30:31.247Z,6.7
2017-11-09T02:31:33.681Z,6.6
2017-11-09T02:32:36.458Z,6.6
2017-11-09T02:33:39.249Z,6.6
2017-11-09T02:34:41.678Z,6.6
2017-11-09T02:35:44.496Z,6.6
2017-11-09T02:36:46.918Z,6.6
2017-11-09T02:37:49.705Z,6.6
2017-11-09T02:38:52.491Z,6.6
2017-11-09T02:39:54.919Z,6.6
2017-11-09T02:40:57.346Z,6.6
2017-11-09T02:41:59.769Z,6.6
2017-11-09T02:43:02.190Z,6.6
2017-11-09T02:44:04.977Z,6.6
2017-11-09T02:45:07.414Z,6.6
2017-11-09T02:46:10.195Z,6.6
2017-11-09T02:47:12.982Z,6.6
2017-11-09T02:48:15.404Z,6.6
2017-11-09T02:49:17.825Z,6.6
2017-11-09T02:50:20.264Z,6.5
2017-11-09T02:51:22.688Z,6.5
2017-11-09T02:52:25.110Z,6.5
2017-11-09T02:53:27.916Z,6.5
2017-11-09T02:54:30.347Z,6.5
2017-11-09T02:55:32.767Z,6.5
2017-11-09T02:56:35.556Z,6.5
2017-11-09T02:57:37.972Z,6.5
2017-11-09T02:58:40.397Z,6.5
2017-11-09T02:59:43.194Z,6.5
2017-11-09T03:00:45.614Z,6.5
2017-11-09T03:01:48.044Z,6.5
2017-11-09T03:02:50.468Z,6.5
2017-11-09T03:03:53.260Z,6.5
2017-11-09T03:04:55.691Z,6.5
2017-11-09T03:05:58.111Z,6.5
2017-11-09T03:07:00.556Z,6.5
2017-11-09T03:08:02.976Z,6.5
2017-11-09T03:09:05.394Z,6.5
2017-11-09T03:10:08.184Z,6.5
2017-11-09T03:11:10.605Z,6.5
2017-11-09T03:12:13.043Z,6.5
2017-11-09T03:13:15.463Z,6.5
2017-11-09T03:14:17.885Z,6.5
2017-11-09T03:15:20.317Z,6.5
2017-11-09T03:16:22.754Z,6.5
2017-11-09T03:17:25.187Z,6.5
2017-11-09T03:18:27.620Z,6.5
2017-11-09T03:19:30.045Z,6.5
2017-11-09T03:20:32.469Z,6.5
2017-11-09T03:21:34.896Z,6.5
2017-11-09T03:22:37.322Z,6.5
2017-11-09T03:23:39.743Z,6.5
2017-11-09T03:24:42.169Z,6.5
2017-11-09T03:25:44.578Z,6.5
2017-11-09T03:26:47.015Z,6.5
2017-11-09T03:27:49.437Z,6.5
2017-11-09T03:28:52.073Z,6.5
2017-11-09T03:29:54.501Z,6.5
2017-11-09T03:30:56.923Z,6.5
2017-11-09T03:31:59.358Z,6.5
2017-11-09T03:33:02.136Z,6.6
2017-11-09T03:34:04.559Z,6.6
2017-11-09T03:35:06.986Z,6.6
2017-11-09T03:36:09.414Z,6.6
2017-11-09T03:37:11.841Z,6.5
2017-11-09T03:38:14.273Z,6.5
2017-11-09T03:39:16.693Z,6.5
2017-11-09T03:40:19.482Z,6.5
2017-11-09T03:41:21.921Z,6.5
2017-11-09T03:42:24.347Z,6.5
2017-11-09T03:43:26.782Z,6.4
2017-11-09T03:44:29.214Z,6.5
2017-11-09T03:45:31.646Z,6.5
2017-11-09T03:46:34.079Z,6.5
2017-11-09T03:47:36.507Z,6.5
2017-11-09T03:48:38.934Z,6.5
2017-11-09T03:49:41.722Z,6.4
2017-11-09T03:50:44.146Z,6.4
2017-11-09T03:51:46.562Z,6.4
2017-11-09T03:52:48.989Z,6.4
2017-11-09T03:53:51.416Z,6.4
2017-11-09T03:54:53.838Z,6.5
2017-11-09T03:55:56.266Z,6.5
2017-11-09T03:56:58.691Z,6.5
2017-11-09T03:58:01.122Z,6.4
2017-11-09T03:59:03.947Z,6.5
2017-11-09T04:00:06.371Z,6.5
2017-11-09T04:01:08.793Z,6.5
2017-11-09T04:02:11.221Z,6.5
2017-11-09T04:03:14.013Z,6.4
2017-11-09T04:04:16.428Z,6.4
2017-11-09T04:05:18.854Z,6.4
2017-11-09T04:06:21.652Z,6.4
2017-11-09T04:07:24.078Z,6.4
2017-11-09T04:08:26.505Z,6.4
2017-11-09T04:09:28.937Z,6.4
2017-11-09T04:10:31.359Z,6.4
2017-11-09T04:11:33.789Z,6.4
2017-11-09T04:12:36.223Z,6.5
2017-11-09T04:13:38.639Z,6.5
2017-11-09T04:14:41.070Z,6.5
2017-11-09T04:15:43.850Z,6.5
2017-11-09T04:16:46.272Z,6.5
2017-11-09T04:17:49.084Z,6.5
2017-11-09T04:18:51.506Z,6.5
2017-11-09T04:19:53.926Z,6.5
2017-11-09T04:20:56.357Z,6.5
2017-11-09T04:21:58.784Z,6.5
2017-11-09T04:23:01.217Z,6.5
2017-11-09T04:24:04.011Z,6.5
2017-11-09T04:25:06.422Z,6.5
2017-11-09T04:26:08.857Z,6.4
2017-11-09T04:27:11.289Z,6.4
2017-11-09T04:28:13.722Z,6.4
2017-11-09T04:29:16.144Z,6.4
2017-11-09T04:30:18.567Z,6.4
2017-11-09T04:31:20.994Z,6.4
2017-11-09T04:32:23.410Z,6.4
2017-11-09T04:33:25.836Z,6.5
2017-11-09T04:34:28.264Z,6.5
2017-11-09T04:35:31.066Z,6.4
2017-11-09T04:36:33.486Z,6.4
2017-11-09T04:37:35.917Z,6.4
2017-11-09T04:38:38.339Z,6.4
2017-11-09T04:39:40.770Z,6.4
2017-11-09T04:40:43.197Z,6.4
2017-11-09T04:41:45.619Z,6.4
2017-11-09T04:42:48.040Z,6.4
2017-11-09T04:43:50.468Z,6.5
2017-11-09T04:44:52.887Z,6.4
2017-11-09T04:45:55.320Z,6.4
2017-11-09T04:46:57.741Z,6.4
2017-11-09T04:48:00.516Z,6.4
2017-11-09T04:49:02.954Z,6.4
2017-11-09T04:50:05.754Z,6.4
2017-11-09T04:51:08.172Z,6.4
2017-11-09T04:52:10.605Z,6.5
2017-11-09T04:53:13.036Z,6.4
2017-11-09T04:54:15.806Z,6.4
2017-11-09T04:55:18.606Z,6.4
2017-11-09T04:56:21.018Z,6.4
2017-11-09T04:57:23.807Z,6.4
2017-11-09T04:58:26.626Z,6.4
2017-11-09T04:59:29.432Z,6.5
2017-11-09T05:00:31.864Z,6.5
2017-11-09T05:01:34.274Z,6.5
2017-11-09T05:02:36.697Z,6.5
2017-11-09T05:03:39.489Z,6.4
2017-11-09T05:04:41.913Z,6.5
2017-11-09T05:05:44.335Z,6.5
2017-11-09T05:06:46.769Z,6.5
2017-11-09T05:07:49.201Z,6.4
2017-11-09T05:08:51.623Z,6.5
2017-11-09T05:09:54.056Z,6.5
2017-11-09T05:10:56.471Z,6.5
2017-11-09T05:11:58.895Z,6.5
2017-11-09T05:13:01.336Z,6.5
2017-11-09T05:14:03.758Z,6.5
2017-11-09T05:15:06.190Z,6.5
2017-11-09T05:16:08.612Z,6.5
2017-11-09T05:17:11.037Z,6.5
2017-11-09T05:18:13.471Z,6.4
2017-11-09T05:19:15.881Z,6.4
2017-11-09T05:20:18.305Z,6.4
2017-11-09T05:21:20.731Z,6.4
2017-11-09T05:22:23.177Z,6.4
2017-11-09T05:23:25.592Z,6.4
2017-11-09T05:24:28.023Z,6.4
2017-11-09T05:25:30.800Z,6.4
2017-11-09T05:26:33.239Z,6.4
2017-11-09T05:27:35.657Z,6.4
2017-11-09T05:28:38.080Z,6.4
2017-11-09T05:29:40.880Z,6.4
2017-11-09T05:30:43.308Z,6.4
2017-11-09T05:31:46.103Z,6.5
2017-11-09T05:32:48.535Z,6.5
2017-11-09T05:33:50.962Z,6.5
2017-11-09T05:34:53.392Z,6.4
2017-11-09T05:35:56.212Z,6.5
2017-11-09T05:36:58.628Z,6.4
2017-11-09T05:38:01.061Z,6.4
2017-11-09T05:39:03.841Z,6.5
2017-11-09T05:40:06.257Z,6.4
2017-11-09T05:41:08.679Z,6.4
2017-11-09T05:42:11.112Z,6.5
2017-11-09T05:43:13.531Z,6.4
2017-11-09T05:44:15.970Z,6.4
2017-11-09T05:45:18.383Z,6.4
2017-11-09T05:46:20.821Z,6.4
2017-11-09T05:47:23.242Z,6.4
2017-11-09T05:48:25.669Z,6.3
2017-11-09T05:49:28.449Z,6.4
2017-11-09T05:50:30.881Z,6.4
2017-11-09T05:51:33.320Z,6.3
2017-11-09T05:52:36.110Z,6.4
2017-11-09T05:53:38.531Z,6.4
2017-11-09T05:54:40.957Z,6.3
2017-11-09T05:55:43.378Z,6.4
2017-11-09T05:56:45.812Z,6.4
2017-11-09T05:57:48.581Z,6.4
2017-11-09T05:58:51.011Z,6.4
2017-11-09T05:59:53.442Z,6.4
2017-11-09T06:00:55.864Z,6.4
2017-11-09T06:01:58.650Z,6.4
2017-11-09T06:03:01.085Z,6.4
2017-11-09T06:04:03.507Z,6.4
2017-11-09T06:05:06.305Z,6.4
2017-11-09T06:06:09.123Z,6.4
2017-11-09T06:07:11.541Z,6.4
2017-11-09T06:08:13.967Z,6.3
2017-11-09T06:09:16.754Z,6.3
2017-11-09T06:10:19.523Z,6.3
2017-11-09T06:11:22.340Z,6.3
2017-11-09T06:12:24.773Z,6.3
2017-11-09T06:13:27.556Z,6.3
2017-11-09T06:14:29.982Z,6.3
2017-11-09T06:15:32.408Z,6.3
2017-11-09T06:16:34.832Z,6.3
2017-11-09T06:17:37.613Z,6.3
2017-11-09T06:18:40.043Z,6.3
2017-11-09T06:19:42.466Z,6.3
2017-11-09T06:20:44.886Z,6.3
2017-11-09T06:21:47.319Z,6.3
2017-11-09T06:22:49.738Z,6.3
2017-11-09T06:23:52.510Z,6.3
2017-11-09T06:24:55.302Z,6.2
2017-11-09T06:25:57.721Z,6.2
2017-11-09T06:27:00.149Z,6.3
2017-11-09T06:28:02.586Z,6.2
2017-11-09T06:29:05.363Z,6.3
2017-11-09T06:30:08.151Z,6.2
2017-11-09T06:31:10.581Z,6.3
2017-11-09T06:32:13.009Z,6.3
2017-11-09T06:33:15.790Z,6.2
2017-11-09T06:34:18.225Z,6.3
2017-11-09T06:35:20.644Z,6.3
2017-11-09T06:36:23.073Z,6.3
2017-11-09T06:37:25.515Z,6.3
2017-11-09T06:38:27.928Z,6.3
2017-11-09T06:39:30.353Z,6.2
2017-11-09T06:40:32.777Z,6.2
2017-11-09T06:41:35.198Z,6.2
2017-11-09T06:42:37.629Z,6.2
2017-11-09T06:43:40.053Z,6.2
2017-11-09T06:44:42.469Z,6.2
2017-11-09T06:45:45.279Z,6.2
2017-11-09T06:46:47.697Z,6.3
2017-11-09T06:47:50.478Z,6.3
2017-11-09T06:48:52.901Z,6.3
2017-11-09T06:49:55.325Z,6.3
2017-11-09T06:50:57.751Z,6.2
2017-11-09T06:52:00.174Z,6.2
2017-11-09T06:53:02.983Z,6.2
2017-11-09T06:54:05.795Z,6.2
2017-11-09T06:55:08.233Z,6.2
2017-11-09T06:56:11.024Z,6.2
2017-11-09T06:57:13.447Z,6.3
2017-11-09T06:58:15.879Z,6.3
2017-11-09T06:59:18.683Z,6.3
2017-11-09T07:00:21.115Z,6.3
2017-11-09T07:01:23.541Z,6.3
2017-11-09T07:02:25.971Z,6.3
2017-11-09T07:03:28.390Z,6.3
2017-11-09T07:04:31.539Z,6.3
2017-11-09T07:05:33.950Z,6.4
2017-11-09T07:06:36.373Z,6.3
2017-11-09T07:07:38.802Z,6.4
2017-11-09T07:08:41.223Z,6.4
2017-11-09T07:09:43.656Z,6.4
2017-11-09T07:10:46.087Z,6.4
2017-11-09T07:11:48.499Z,6.4
2017-11-09T07:12:50.931Z,6.4
2017-11-09T07:13:53.365Z,6.4
2017-11-09T07:14:55.793Z,6.4
2017-11-09T07:15:58.224Z,6.3
2017-11-09T07:17:00.648Z,6.4
2017-11-09T07:18:03.080Z,6.4
2017-11-09T07:19:05.515Z,6.3
2017-11-09T07:20:07.941Z,6.4
2017-11-09T07:21:10.376Z,6.3
2017-11-09T07:22:13.519Z,6.3
2017-11-09T07:23:15.934Z,6.3
2017-11-09T07:24:18.362Z,6.4
2017-11-09T07:25:20.787Z,6.4
2017-11-09T07:26:23.559Z,6.3
2017-11-09T07:27:25.995Z,6.3
2017-11-09T07:28:28.416Z,6.3
2017-11-09T07:29:31.216Z,6.3
2017-11-09T07:30:33.640Z,6.3
2017-11-09T07:31:36.064Z,6.3
2017-11-09T07:32:38.484Z,6.3
2017-11-09T07:33:40.904Z,6.3
2017-11-09T07:34:43.323Z,6.3
2017-11-09T07:35:45.760Z,6.3
2017-11-09T07:36:48.179Z,6.4
2017-11-09T07:37:50.607Z,6.4
2017-11-09T07:38:53.036Z,6.4
2017-11-09T07:39:55.473Z,6.4
2017-11-09T07:40:58.241Z,6.3
2017-11-09T07:42:00.672Z,6.4
2017-11-09T07:43:03.084Z,6.4
2017-11-09T07:44:05.521Z,6.4
2017-11-09T07:45:07.948Z,6.4
2017-11-09T07:46:10.373Z,6.4
2017-11-09T07:47:12.802Z,6.4
2017-11-09T07:48:15.228Z,6.4
2017-11-09T07:49:17.654Z,6.4
2017-11-09T07:50:20.097Z,6.4
2017-11-09T07:51:22.889Z,6.4
2017-11-09T07:52:25.311Z,6.4
2017-11-09T07:53:27.737Z,6.4
2017-11-09T07:54:30.166Z,6.4
2017-11-09T07:55:32.593Z,6.4
2017-11-09T07:56:35.017Z,6.3
2017-11-09T07:57:37.791Z,6.3
2017-11-09T07:58:40.222Z,6.4
2017-11-09T07:59:42.820Z,6.4
2017-11-09T08:00:45.315Z,6.4
2017-11-09T08:01:47.730Z,6.4
2017-11-09T08:02:50.164Z,6.4
2017-11-09T08:03:52.591Z,6.4
2017-11-09T08:04:55.019Z,6.4
2017-11-09T08:05:58.161Z,6.4
2017-11-09T08:07:00.592Z,6.4
2017-11-09T08:08:03.019Z,6.4
2017-11-09T08:09:05.464Z,6.4
2017-11-09T08:10:08.285Z,6.4
2017-11-09T08:11:10.710Z,6.4
2017-11-09T08:12:13.125Z,6.4
2017-11-09T08:13:15.916Z,6.3
2017-11-09T08:14:18.356Z,6.3
2017-11-09T08:15:20.789Z,6.4
2017-11-09T08:16:23.197Z,6.4
2017-11-09T08:17:25.635Z,6.4
2017-11-09T08:18:28.066Z,6.4
2017-11-09T08:19:30.488Z,6.4
2017-11-09T08:20:33.269Z,6.4
2017-11-09T08:21:35.691Z,6.5
2017-11-09T08:22:38.116Z,6.5
2017-11-09T08:23:40.559Z,6.5
2017-11-09T08:24:42.982Z,6.5
2017-11-09T08:25:45.402Z,6.5
2017-11-09T08:26:47.834Z,6.5
2017-11-09T08:27:50.266Z,6.5
2017-11-09T08:28:52.691Z,6.5
2017-11-09T08:29:55.824Z,6.5
2017-11-09T08:30:58.251Z,6.6
2017-11-09T08:32:00.671Z,6.6
2017-11-09T08:33:03.107Z,6.5
2017-11-09T08:34:05.529Z,6.6
2017-11-09T08:35:08.337Z,6.6
2017-11-09T08:36:10.761Z,6.6
2017-11-09T08:37:13.198Z,6.6
2017-11-09T08:38:15.629Z,6.6
2017-11-09T08:39:18.049Z,6.5
2017-11-09T08:40:20.475Z,6.5
2017-11-09T08:41:22.901Z,6.5
2017-11-09T08:42:25.316Z,6.5
2017-11-09T08:43:28.139Z,6.5
2017-11-09T08:44:30.567Z,6.5
2017-11-09T08:45:32.990Z,6.5
2017-11-09T08:46:35.419Z,6.5
2017-11-09T08:47:37.863Z,6.5
2017-11-09T08:48:40.268Z,6.5
2017-11-09T08:49:43.075Z,6.5
2017-11-09T08:50:45.866Z,6.5
2017-11-09T08:51:48.299Z,6.5
2017-11-09T08:52:50.732Z,6.5
2017-11-09T08:53:53.161Z,6.5
2017-11-09T08:54:55.589Z,6.6
2017-11-09T08:55:58.026Z,6.6
2017-11-09T08:57:00.440Z,6.6
2017-11-09T08:58:03.242Z,6.6
2017-11-09T08:59:05.662Z,6.7
2017-11-09T09:00:08.093Z,6.7
2017-11-09T09:01:10.528Z,6.7
2017-11-09T09:02:13.362Z,6.7
2017-11-09T09:03:15.995Z,6.7
2017-11-09T09:04:18.959Z,6.7
2017-11-09T09:05:22.566Z,6.7
2017-11-09T09:06:24.993Z,6.7
2017-11-09T09:07:27.425Z,6.6
2017-11-09T09:08:30.190Z,6.6
2017-11-09T09:09:32.615Z,6.6
2017-11-09T09:10:35.047Z,6.6
2017-11-09T09:11:37.469Z,6.6
2017-11-09T09:12:39.893Z,6.6
2017-11-09T09:13:42.326Z,6.6
2017-11-09T09:14:45.467Z,6.6
2017-11-09T09:15:47.893Z,6.6
2017-11-09T09:16:50.675Z,6.6
2017-11-09T09:17:53.093Z,6.6
2017-11-09T09:18:55.519Z,6.6
2017-11-09T09:19:57.948Z,6.6
2017-11-09T09:21:00.375Z,6.6
2017-11-09T09:22:02.812Z,6.6
2017-11-09T09:23:05.228Z,6.6
2017-11-09T09:24:07.660Z,6.6
2017-11-09T09:25:10.089Z,6.6
2017-11-09T09:26:12.515Z,6.5
2017-11-09T09:27:14.950Z,6.5
2017-11-09T09:28:17.380Z,6.5
2017-11-09T09:29:19.829Z,6.6
2017-11-09T09:30:22.233Z,6.6
2017-11-09T09:31:24.660Z,6.6
2017-11-09T09:32:27.116Z,6.6
2017-11-09T09:33:29.539Z,6.6
2017-11-09T09:34:31.961Z,6.6
2017-11-09T09:35:34.383Z,6.6
2017-11-09T09:36:36.806Z,6.6
2017-11-09T09:37:39.592Z,6.6
2017-11-09T09:38:42.756Z,6.6
2017-11-09T09:39:45.179Z,6.7
2017-11-09T09:40:47.613Z,6.7
2017-11-09T09:41:50.049Z,6.7
2017-11-09T09:42:52.467Z,6.7
2017-11-09T09:43:54.902Z,6.7
2017-11-09T09:44:57.323Z,6.7
2017-11-09T09:46:00.111Z,6.7
2017-11-09T09:47:02.551Z,6.7
2017-11-09T09:48:05.330Z,6.7
2017-11-09T09:49:07.752Z,6.7
2017-11-09T09:50:10.574Z,6.7
2017-11-09T09:51:12.996Z,6.7
2017-11-09T09:52:15.420Z,6.7
2017-11-09T09:53:17.856Z,6.7
2017-11-09T09:54:20.641Z,6.8
2017-11-09T09:55:23.065Z,6.8
2017-11-09T09:56:25.505Z,6.8
2017-11-09T09:57:27.937Z,6.9
2017-11-09T09:58:30.698Z,6.9
2017-11-09T09:59:33.130Z,6.9
2017-11-09T10:00:35.951Z,6.9
2017-11-09T10:01:38.383Z,6.9
2017-11-09T10:02:40.812Z,6.9
2017-11-09T10:03:43.238Z,6.9
2017-11-09T10:04:45.656Z,6.9
2017-11-09T10:05:48.106Z,6.9
2017-11-09T10:06:50.538Z,7
2017-11-09T10:07:52.947Z,6.9
2017-11-09T10:08:55.607Z,6.9
2017-11-09T10:09:58.037Z,6.9
2017-11-09T10:11:00.824Z,6.9
2017-11-09T10:12:03.265Z,7
2017-11-09T10:13:05.681Z,7.1
2017-11-09T10:14:08.116Z,7.1
2017-11-09T10:15:10.547Z,7
2017-11-09T10:16:12.989Z,7
2017-11-09T10:17:15.415Z,7
2017-11-09T10:18:17.851Z,7.1
2017-11-09T10:19:20.274Z,7
2017-11-09T10:20:22.712Z,7.1
2017-11-09T10:21:25.497Z,7.1
2017-11-09T10:22:27.922Z,7
2017-11-09T10:23:30.735Z,7.1
2017-11-09T10:24:33.995Z,7.1
2017-11-09T10:25:36.429Z,7.1
2017-11-09T10:26:38.863Z,7.1
2017-11-09T10:27:41.286Z,7.1
2017-11-09T10:28:43.720Z,7.1
2017-11-09T10:29:46.140Z,7.1
2017-11-09T10:30:48.566Z,7.1
2017-11-09T10:31:51.014Z,7.1
2017-11-09T10:32:53.433Z,7.1
2017-11-09T10:33:55.862Z,7.1
2017-11-09T10:34:58.668Z,7.1
2017-11-09T10:36:01.097Z,7.1
2017-11-09T10:37:03.529Z,7.1
2017-11-09T10:38:05.964Z,7.2
2017-11-09T10:39:08.378Z,7.2
2017-11-09T10:40:10.802Z,7.2
2017-11-09T10:41:13.235Z,7.2
2017-11-09T10:42:15.656Z,7.2
2017-11-09T10:43:18.081Z,7.2
2017-11-09T10:44:20.501Z,7.3
2017-11-09T10:45:22.934Z,7.3
2017-11-09T10:46:25.376Z,7.3
2017-11-09T10:47:27.797Z,7.3
2017-11-09T10:48:30.225Z,7.3
2017-11-09T10:49:32.653Z,7.3
2017-11-09T10:50:35.077Z,7.3
2017-11-09T10:51:37.503Z,7.3
2017-11-09T10:52:39.931Z,7.3
2017-11-09T10:53:42.338Z,7.3
2017-11-09T10:54:44.775Z,7.4
2017-11-09T10:55:47.207Z,7.4
2017-11-09T10:56:49.995Z,7.4
2017-11-09T10:57:52.415Z,7.3
2017-11-09T10:58:54.838Z,7.3
2017-11-09T10:59:57.261Z,7.3
2017-11-09T11:00:59.689Z,7.3
2017-11-09T11:02:02.106Z,7.3
2017-11-09T11:03:04.552Z,7.4
2017-11-09T11:04:06.967Z,7.4
2017-11-09T11:05:09.401Z,7.4
2017-11-09T11:06:12.210Z,7.5
2017-11-09T11:07:14.630Z,7.5
2017-11-09T11:08:17.065Z,7.5
2017-11-09T11:09:19.496Z,7.5
2017-11-09T11:10:21.913Z,7.5
2017-11-09T11:11:24.350Z,7.5
2017-11-09T11:12:26.770Z,7.5
2017-11-09T11:13:29.198Z,7.6
2017-11-09T11:14:31.639Z,7.6
2017-11-09T11:15:34.065Z,7.6
2017-11-09T11:16:36.489Z,7.6
2017-11-09T11:17:38.916Z,7.7
2017-11-09T11:18:41.342Z,7.7
2017-11-09T11:19:43.782Z,7.7
2017-11-09T11:20:46.207Z,7.7
2017-11-09T11:21:48.634Z,7.7
2017-11-09T11:22:51.061Z,7.7
2017-11-09T11:23:53.488Z,7.7
2017-11-09T11:24:55.923Z,7.7
2017-11-09T11:25:58.334Z,7.7
2017-11-09T11:27:00.776Z,7.7
2017-11-09T11:28:03.212Z,7.7
2017-11-09T11:29:05.668Z,7.7
2017-11-09T11:30:08.101Z,7.7
2017-11-09T11:31:10.509Z,7.7
2017-11-09T11:32:13.312Z,7.7
2017-11-09T11:33:15.737Z,7.8
2017-11-09T11:34:18.154Z,7.8
2017-11-09T11:35:20.955Z,7.8
2017-11-09T11:36:23.393Z,7.8
2017-11-09T11:37:26.180Z,7.9
2017-11-09T11:38:28.969Z,7.9
2017-11-09T11:39:31.773Z,8
2017-11-09T11:40:34.200Z,8
2017-11-09T11:41:36.625Z,8.1
2017-11-09T11:42:39.053Z,8.2
2017-11-09T11:43:41.856Z,8.2
2017-11-09T11:44:44.273Z,8.2
2017-11-09T11:45:46.711Z,8.2
2017-11-09T11:46:49.900Z,8.2
2017-11-09T11:47:52.326Z,8.2
2017-11-09T11:48:54.759Z,8.2
2017-11-09T11:49:57.544Z,8.2
2017-11-09T11:50:59.967Z,8.2
2017-11-09T11:52:02.405Z,8.1
2017-11-09T11:53:04.842Z,8.1
2017-11-09T11:54:07.672Z,8
2017-11-09T11:55:10.096Z,8
2017-11-09T11:56:12.519Z,8.1
2017-11-09T11:57:14.947Z,8.1
2017-11-09T11:58:17.375Z,8.1
2017-11-09T11:59:19.804Z,8.1
2017-11-09T12:00:22.217Z,8.1
2017-11-09T12:01:24.649Z,8.1
2017-11-09T12:02:27.088Z,8.1
2017-11-09T12:03:29.518Z,8.1
2017-11-09T12:04:32.305Z,8.1
2017-11-09T12:05:35.084Z,8.2
2017-11-09T12:06:37.512Z,8.2
2017-11-09T12:07:39.946Z,8.2
2017-11-09T12:08:42.367Z,8.2
2017-11-09T12:09:44.785Z,8.2
2017-11-09T12:10:47.215Z,8.2
2017-11-09T12:11:50.001Z,8.2
2017-11-09T12:12:52.428Z,8.2
2017-11-09T12:13:54.858Z,8.2
2017-11-09T12:14:57.287Z,8.1
2017-11-09T12:16:00.077Z,8.1
2017-11-09T12:17:02.587Z,8.2
2017-11-09T12:18:05.015Z,8.2
2017-11-09T12:19:07.448Z,8.2
2017-11-09T12:20:09.878Z,8.2
2017-11-09T12:21:12.298Z,8.2
2017-11-09T12:22:14.725Z,8.2
2017-11-09T12:23:17.155Z,8.2
2017-11-09T12:24:19.591Z,8.1
2017-11-09T12:25:22.008Z,8.2
2017-11-09T12:26:24.449Z,8.2
2017-11-09T12:27:26.880Z,8.2
2017-11-09T12:28:29.305Z,8.2
2017-11-09T12:29:31.731Z,8.2
2017-11-09T12:30:34.157Z,8.2
2017-11-09T12:31:36.588Z,8.2
2017-11-09T12:32:39.025Z,8.2
2017-11-09T12:33:41.450Z,8.2
2017-11-09T12:34:43.885Z,8.2
2017-11-09T12:35:46.305Z,8.2
2017-11-09T12:36:48.732Z,8.2
2017-11-09T12:37:51.155Z,8.2
2017-11-09T12:38:53.579Z,8.2
2017-11-09T12:39:56.363Z,8.2
2017-11-09T12:40:58.789Z,8.2
2017-11-09T12:42:01.216Z,8.2
2017-11-09T12:43:03.650Z,8.2
2017-11-09T12:44:06.150Z,8.2
2017-11-09T12:45:08.588Z,8.2
2017-11-09T12:46:11.015Z,8.2
2017-11-09T12:47:13.448Z,8.2
2017-11-09T12:48:15.879Z,8.2
2017-11-09T12:49:18.305Z,8.2
2017-11-09T12:50:20.728Z,8.2
2017-11-09T12:51:23.515Z,8.2
2017-11-09T12:52:25.929Z,8.2
2017-11-09T12:53:28.752Z,8.2
2017-11-09T12:54:31.227Z,8.2
2017-11-09T12:55:33.651Z,8.3
2017-11-09T12:56:36.073Z,8.3
2017-11-09T12:57:38.498Z,8.2
2017-11-09T12:58:40.934Z,8.2
2017-11-09T12:59:43.375Z,8.3
2017-11-09T13:00:45.795Z,8.3
2017-11-09T13:01:48.223Z,8.3
2017-11-09T13:02:50.653Z,8.2
2017-11-09T13:03:53.079Z,8.3
2017-11-09T13:04:55.510Z,8.3
2017-11-09T13:05:57.940Z,8.3
2017-11-09T13:07:01.064Z,8.3
2017-11-09T13:08:03.504Z,8.4
2017-11-09T13:09:05.934Z,8.4
2017-11-09T13:10:08.358Z,8.4
2017-11-09T13:11:10.790Z,8.4
2017-11-09T13:12:13.221Z,8.3
2017-11-09T13:13:15.648Z,8.3
2017-11-09T13:14:18.065Z,8.3
2017-11-09T13:15:20.867Z,8.3
2017-11-09T13:16:23.291Z,8.4
2017-11-09T13:17:25.724Z,8.4
2017-11-09T13:18:28.144Z,8.4
2017-11-09T13:19:30.572Z,8.4
2017-11-09T13:20:33.004Z,8.4
2017-11-09T13:21:35.449Z,8.4
2017-11-09T13:22:37.864Z,8.4
2017-11-09T13:23:40.297Z,8.4
2017-11-09T13:24:42.736Z,8.3
2017-11-09T13:25:45.160Z,8.3
2017-11-09T13:26:47.594Z,8.3
2017-11-09T13:27:50.036Z,8.4
2017-11-09T13:28:52.452Z,8.3
2017-11-09T13:29:55.238Z,8.4
2017-11-09T13:30:57.677Z,8.4
2017-11-09T13:32:00.455Z,8.4
2017-11-09T13:33:03.257Z,8.4
2017-11-09T13:34:05.680Z,8.3
2017-11-09T13:35:08.111Z,8.4
2017-11-09T13:36:10.553Z,8.3
2017-11-09T13:37:12.972Z,8.3
2017-11-09T13:38:15.395Z,8.4
2017-11-09T13:39:17.828Z,8.4
2017-11-09T13:40:20.262Z,8.4
2017-11-09T13:41:22.689Z,8.4
2017-11-09T13:42:25.494Z,8.4
2017-11-09T13:43:27.916Z,8.4
2017-11-09T13:44:30.350Z,8.4
2017-11-09T13:45:32.772Z,8.4
2017-11-09T13:46:35.201Z,8.4
2017-11-09T13:47:37.989Z,8.4
2017-11-09T13:48:40.418Z,8.4
2017-11-09T13:49:42.840Z,8.4
2017-11-09T13:50:45.278Z,8.4
2017-11-09T13:51:47.706Z,8.4
2017-11-09T13:52:50.141Z,8.4
2017-11-09T13:53:52.570Z,8.4
2017-11-09T13:54:55.004Z,8.4
2017-11-09T13:55:57.434Z,8.4
2017-11-09T13:56:59.862Z,8.4
2017-11-09T13:58:02.282Z,8.4
2017-11-09T13:59:04.715Z,8.4
2017-11-09T14:00:07.509Z,8.4
2017-11-09T14:01:09.931Z,8.4
2017-11-09T14:02:12.368Z,8.4
2017-11-09T14:03:14.797Z,8.4
2017-11-09T14:04:17.579Z,8.4
2017-11-09T14:05:20.019Z,8.4
2017-11-09T14:06:22.427Z,8.4
2017-11-09T14:07:24.862Z,8.4
2017-11-09T14:08:27.300Z,8.4
2017-11-09T14:09:29.723Z,8.4
2017-11-09T14:10:32.152Z,8.4
2017-11-09T14:11:34.584Z,8.4
2017-11-09T14:12:37.013Z,8.4
2017-11-09T14:13:39.437Z,8.4
2017-11-09T14:14:41.867Z,8.4
2017-11-09T14:15:44.278Z,8.4
2017-11-09T14:16:47.095Z,8.4
2017-11-09T14:17:49.516Z,8.4
2017-11-09T14:18:52.311Z,8.4
2017-11-09T14:19:54.741Z,8.4
2017-11-09T14:20:57.168Z,8.4